createdAt,value
2023-01-26T00:07:13.776Z,100784.87
2023-01-26T00:17:26.374Z,100761.91
2023-01-26T00:27:32.531Z,100742.79
2023-01-26T00:37:37.496Z,100734.09
2023-01-26T00:47:41.241Z,100724.33
2023-01-26T00:57:45.045Z,100726.31
2023-01-26T01:07:49.189Z,100732.08
2023-01-26T01:17:52.975Z,100727.81
2023-01-26T01:27:56.764Z,100734.96
2023-01-26T01:38:00.902Z,100731.70
2023-01-26T01:48:07.380Z,100717.99
2023-01-26T01:58:15.144Z,100712.97
2023-01-26T02:08:21.772Z,100705.09
2023-01-26T02:18:31.944Z,100691.91
2023-01-26T02:28:43.179Z,100684.05
2023-01-26T02:39:33.327Z,100665.03
2023-01-26T02:50:09.782Z,100653.98
2023-01-26T03:01:37.719Z,100649.90
2023-01-26T03:14:02.383Z,100636.48
2023-01-26T03:26:15.513Z,100612.34
2023-01-26T03:36:46.867Z,100606.95
2023-01-26T03:47:15.029Z,100613.39
2023-01-26T03:57:20.946Z,100602.62
2023-01-26T04:07:45.915Z,100593.61
2023-01-26T04:19:30.252Z,100579.38
2023-01-26T04:31:54.935Z,100576.21
2023-01-26T04:44:19.354Z,100571.97
2023-01-26T04:56:43.797Z,100568.47
2023-01-26T05:08:26.463Z,100571.15
2023-01-26T05:20:50.925Z,100576.39
2023-01-26T05:33:18.139Z,100568.23
2023-01-26T05:45:42.021Z,100559.16
2023-01-26T05:55:49.537Z,100554.98
2023-01-26T06:05:58.229Z,100553.75
2023-01-26T06:16:26.201Z,100553.67
2023-01-26T06:26:30.260Z,100548.45
2023-01-26T06:36:35.600Z,100555.89
2023-01-26T06:47:03.561Z,100552.77
2023-01-26T06:57:09.208Z,100550.79
2023-01-26T07:07:40.621Z,100554.38
2023-01-26T07:17:47.487Z,100544.23
2023-01-26T07:27:59.508Z,100541.64
2023-01-26T07:38:10.444Z,100534.91
2023-01-26T07:48:17.087Z,100530.41
2023-01-26T07:58:23.993Z,100527.18
2023-01-26T08:08:30.549Z,100530.71
2023-01-26T08:18:54.598Z,100521.35
2023-01-26T08:28:58.736Z,100529.00
2023-01-26T08:39:05.410Z,100528.30
2023-01-26T08:49:19.927Z,100528.60
2023-01-26T09:00:30.453Z,100526.68
2023-01-26T09:12:19.200Z,100514.72
2023-01-26T09:23:28.568Z,100493.21
2023-01-26T09:35:01.250Z,100487.88
2023-01-26T09:47:20.630Z,100487.52
2023-01-26T09:59:45.340Z,100476.85
2023-01-26T10:12:29.966Z,100475.49
2023-01-26T10:24:37.121Z,100475.28
2023-01-26T10:37:01.305Z,100476.98
2023-01-26T10:48:52.916Z,100464.52
2023-01-26T10:59:05.838Z,100456.16
2023-01-26T11:09:14.548Z,100448.69
2023-01-26T11:19:43.851Z,100442.39
2023-01-26T11:30:22.436Z,100427.70
2023-01-26T11:41:44.521Z,100414.85
2023-01-26T11:52:37.756Z,100402.17
2023-01-26T12:03:00.398Z,100395.13
2023-01-26T12:15:05.636Z,100381.61
2023-01-26T12:25:25.205Z,100385.25
2023-01-26T12:35:58.342Z,100377.72
2023-01-26T12:46:05.813Z,100370.68
2023-01-26T12:56:18.671Z,100364.05
2023-01-26T13:06:27.487Z,100366.77
2023-01-26T13:16:35.507Z,100372.67
2023-01-26T13:26:46.498Z,100366.05
2023-01-26T13:37:29.337Z,100361.80
2023-01-26T13:47:46.336Z,100350.95
2023-01-26T13:58:10.387Z,100354.30
2023-01-26T14:08:16.387Z,100361.58
2023-01-26T14:18:23.031Z,100361.02
2023-01-26T14:28:49.519Z,100363.43
2023-01-26T14:50:40.104Z,100355.48
2023-01-26T15:00:49.884Z,100352.27
2023-01-26T15:12:04.398Z,100347.24
2023-01-26T15:48:40.155Z,100364.29
2023-01-26T15:58:44.039Z,100369.27
2023-01-26T16:08:47.815Z,100359.74
2023-01-26T16:18:51.400Z,100357.30
2023-01-26T16:28:55.618Z,100355.75
2023-01-26T16:38:59.352Z,100356.25
2023-01-26T16:49:03.024Z,100364.59
2023-01-26T16:59:40.976Z,100367.70
2023-01-26T17:10:16.341Z,100365.21
2023-01-26T17:20:20.288Z,100358.89
2023-01-26T17:30:23.997Z,100359.67
2023-01-26T17:40:28.993Z,100359.10
2023-01-26T17:50:34.630Z,100365.89
2023-01-26T18:00:39.388Z,100373.11
2023-01-26T18:10:42.957Z,100366.22
2023-01-26T18:20:48.455Z,100362.66
2023-01-26T18:30:52.149Z,100363.13
2023-01-26T18:40:55.777Z,100381.42
2023-01-26T18:50:59.674Z,100388.30
2023-01-26T19:01:11.670Z,100393.55
2023-01-26T19:11:15.555Z,100395.91
2023-01-26T19:21:24.723Z,100390.27
2023-01-26T19:31:29.452Z,100376.15
2023-01-26T19:42:11.151Z,100365.00
2023-01-26T19:52:18.454Z,100352.95
2023-01-26T20:02:22.877Z,100346.08
2023-01-26T20:12:26.656Z,100351.46
2023-01-26T20:22:35.318Z,100351.56
2023-01-26T20:32:40.623Z,100349.64
2023-01-26T20:42:46.220Z,100355.56
2023-01-26T20:52:50.706Z,100359.98
2023-01-26T21:02:54.443Z,100361.11
2023-01-26T21:12:58.403Z,100369.17
2023-01-26T21:23:04.885Z,100372.32
2023-01-26T21:33:08.646Z,100367.73
2023-01-26T21:43:12.244Z,100373.48
2023-01-26T21:53:15.754Z,100388.66
2023-01-26T22:03:19.473Z,100385.92
2023-01-26T22:13:23.910Z,100391.16
2023-01-26T22:23:34.482Z,100384.20
2023-01-26T22:33:42.083Z,100381.04
2023-01-26T22:43:50.000Z,100378.81
2023-01-26T22:53:54.697Z,100372.35
2023-01-26T23:04:00.365Z,100371.12
2023-01-26T23:14:05.782Z,100372.89
2023-01-26T23:24:09.451Z,100366.55
2023-01-26T23:34:13.085Z,100371.99
2023-01-26T23:44:18.516Z,100370.73
2023-01-26T23:54:22.014Z,100364.27
